Terminal Aerodrome Forecast
Issued by NWS

Home | Current Version | Previous Version | Graphics & Text | Print | Product List | Glossary On
Versions: 1 2 3 4 5 6 7 8 9 10 11 12 13 14 15
000
FTUS43 KMPX 282300
TAFRWF
TAF
KRWF 282339Z 2900/2924 30016G25KT P6SM OVC035
     FM290200 30010KT P6SM SCT035 BKN050
     FM290600 30008KT P6SM SCT025
     FM291500 29006KT P6SM SCT200=

USA.gov is the U.S. government's official web portal to all federal, state and local government web resources and services.